Decorra, Illinois
Current Conditions -  °F | °C
As of 1:53 PM on Friday 31 Oct 2014 (Local Time) from KBRL Reporting Station
Clear Clear  
Wind Chill: 34°   Ceiling: Unl
Heat Index: 43°   Visibility: 10mi
Dew Point: 22°   Wind: 22mph
Humidity: 43%   Direction: 350°N
Pressure: 30.35"   Gusts: 29mph
Location:  40.7638°N, 90.9614°W
Report Text: KBRL 311853Z AUTO 35019G25KT 10SM CLR 06/M06 A3035 RMK AO2 PK WND 34028/1827 SLP282 T00611056
Loading
Personal Weather Stations






























Interactive Weather Map
Tropical Storm Tracking
New forecast layout! Learn more

10-Day Weather Forecast

Advertisements
Track Severe Weather on mobile